Time;durP1;ratioP1;P1;durP2;ratioP2;P2;SDS_P1;SDS_P2;PMS_P1;PMS_P2;Temp;Humidity;BMP_temperature;BMP_pressure;BME280_temperature;BME280_humidity;BME280_pressure;Samples;Min_cycle;Max_cycle;Signal;HPM_P1;HPM_P2
2023/05/05 00:01:34;;;;;;;7.33;3.57;;;14.40;61.20;;;16.92;45.08;101720.09;5033099;28;20674;-65
2023/05/05 00:04:01;;;;;;;3.70;3.20;;;14.40;61.20;;;16.93;45.06;101723.59;5033816;28;20269;-66
2023/05/05 00:06:28;;;;;;;3.40;3.00;;;14.30;61.30;;;16.91;45.23;101715.00;5034658;28;20194;-65
2023/05/05 00:08:57;;;;;;;6.50;3.63;;;14.30;61.50;;;16.88;45.02;101721.50;5033514;28;20191;-68
2023/05/05 00:11:24;;;;;;;5.13;3.50;;;14.30;61.70;;;16.86;45.43;101722.72;5034137;28;20198;-65
2023/05/05 00:13:51;;;;;;;4.30;3.23;;;14.30;61.80;;;16.84;45.69;101722.09;5033706;28;20737;-65
2023/05/05 00:16:18;;;;;;;4.20;3.50;;;14.30;62.00;;;16.83;45.72;101717.78;5034304;28;20261;-65
2023/05/05 00:18:46;;;;;;;7.43;3.73;;;14.20;62.10;;;16.82;45.47;101716.16;5034008;28;20697;-66
2023/05/05 00:21:13;;;;;;;4.73;2.73;;;14.20;62.10;;;16.78;45.65;101725.53;5032917;28;20196;-65
2023/05/05 00:23:40;;;;;;;7.33;3.80;;;14.20;62.10;;;16.76;45.68;101716.91;5033814;28;20205;-65
2023/05/05 00:26:08;;;;;;;5.93;3.33;;;14.20;62.10;;;16.76;45.68;101711.56;5034218;28;20205;-65
2023/05/05 00:28:35;;;;;;;6.20;3.60;;;14.20;62.50;;;16.74;45.67;101713.59;5033963;28;20197;-65
2023/05/05 00:31:02;;;;;;;7.07;3.40;;;14.20;62.80;;;16.73;45.78;101714.63;5034086;28;20202;-65
2023/05/05 00:33:29;;;;;;;10.47;3.57;;;14.10;62.90;;;16.73;45.47;101712.81;5033628;28;20233;-65
2023/05/05 00:35:56;;;;;;;5.77;3.20;;;14.10;62.80;;;16.74;45.98;101703.81;5033815;28;20538;-65
2023/05/05 00:38:23;;;;;;;4.50;2.90;;;14.10;62.90;;;16.77;45.99;101702.59;5033627;28;20558;-65
2023/05/05 00:40:50;;;;;;;6.87;3.30;;;14.10;62.90;;;16.78;46.12;101699.72;5033527;28;20195;-63
2023/05/05 00:43:18;;;;;;;5.13;3.03;;;14.10;63.20;;;16.78;45.83;101706.91;5033445;28;20198;-65
2023/05/05 00:45:46;;;;;;;6.23;3.53;;;14.10;63.00;;;16.77;46.03;101697.28;5033486;28;20218;-65
2023/05/05 00:48:15;;;;;;;11.67;3.80;;;14.10;63.10;;;16.73;46.14;101691.53;5033576;28;20218;-65
2023/05/05 00:50:43;;;;;;;8.63;3.50;;;14.10;63.10;;;16.72;46.12;101694.38;5033663;28;20553;-65
2023/05/05 00:53:12;;;;;;;4.60;3.17;;;14.10;63.00;;;16.71;46.20;101692.75;5033372;28;20518;-64
2023/05/05 00:55:40;;;;;;;6.17;3.40;;;14.10;63.30;;;16.68;46.21;101693.13;5033568;28;20280;-65
2023/05/05 00:58:08;;;;;;;3.60;2.80;;;14.10;63.50;;;16.68;45.86;101688.63;5032892;28;20258;-65
2023/05/05 01:00:37;;;;;;;7.07;3.00;;;14.10;63.30;;;16.63;46.13;101684.88;5033664;28;20651;-65
2023/05/05 01:03:04;;;;;;;5.47;3.70;;;14.00;63.40;;;16.56;46.35;101676.84;5033131;28;20195;-65
2023/05/05 01:05:42;;;;;;;7.13;3.57;;;14.00;63.40;;;16.47;46.53;101670.00;5033472;28;20221;-65
2023/05/05 01:08:32;;;;;;;6.77;2.87;;;14.00;63.80;;;16.38;46.83;101665.00;5032640;28;20187;-65
2023/05/05 01:11:10;;;;;;;8.20;3.07;;;13.90;63.90;;;16.37;46.99;101673.97;5033141;28;20210;-65
2023/05/05 01:13:51;;;;;;;5.20;3.30;;;13.90;64.20;;;16.34;46.81;101669.03;5032822;28;20186;-65
2023/05/05 01:16:25;;;;;;;5.50;3.43;;;13.90;64.10;;;16.33;46.82;101659.41;5032746;28;20209;-66
2023/05/05 01:19:00;;;;;;;6.13;3.50;;;13.80;64.30;;;16.31;46.71;101661.44;5033214;28;20248;-65
2023/05/05 01:21:34;;;;;;;4.33;2.73;;;13.80;64.40;;;16.27;46.71;101667.13;5033342;28;20178;-65
2023/05/05 01:24:41;;;;;;;6.37;2.60;;;13.70;64.50;;;16.19;47.34;101661.09;5033024;28;20210;-65
2023/05/05 01:27:47;;;;;;;5.13;3.27;;;13.70;64.60;;;16.16;47.53;101651.66;5033490;28;20205;-63
2023/05/05 01:30:36;;;;;;;6.13;3.17;;;13.70;64.90;;;16.16;47.06;101651.66;5013552;28;20553;-65
2023/05/05 01:33:13;;;;;;;6.20;3.57;;;13.70;64.90;;;16.17;47.24;101648.00;5019917;28;20187;-63
2023/05/05 01:35:46;;;;;;;8.40;3.30;;;13.60;65.00;;;16.19;47.21;101646.00;5032934;28;20275;-65
2023/05/05 01:38:18;;;;;;;6.30;3.10;;;13.60;65.00;;;16.22;46.84;101644.78;5021467;28;20213;-64
2023/05/05 01:40:55;;;;;;;8.17;3.00;;;13.60;65.10;;;16.22;47.10;101650.94;5032714;28;20640;-65
2023/05/05 01:43:26;;;;;;;6.57;3.20;;;13.60;65.10;;;16.22;47.19;101648.28;5032930;28;20212;-65
2023/05/05 01:45:55;;;;;;;4.30;2.93;;;13.60;65.10;;;16.28;46.75;101642.19;5033001;28;20214;-65
2023/05/05 01:48:24;;;;;;;6.37;3.33;;;13.60;64.80;;;16.31;47.16;101648.16;5032669;28;20194;-65
2023/05/05 01:50:53;;;;;;;6.13;3.20;;;13.60;64.90;;;16.27;46.82;101643.22;5032669;28;20198;-65
2023/05/05 01:53:22;;;;;;;6.27;3.00;;;13.60;64.70;;;16.26;46.62;101636.25;5032799;28;20249;-64
2023/05/05 01:55:51;;;;;;;4.70;2.90;;;13.60;64.70;;;16.26;46.67;101641.56;5032738;28;20214;-63
2023/05/05 01:58:21;;;;;;;6.37;3.13;;;13.60;64.50;;;16.26;46.81;101646.88;5032535;28;20222;-64
2023/05/05 02:00:49;;;;;;;5.13;2.87;;;13.60;64.70;;;16.24;46.42;101648.91;5032755;28;20218;-67
2023/05/05 02:03:21;;;;;;;5.93;3.13;;;13.60;64.60;;;16.22;46.54;101640.31;5032222;28;20203;-65
2023/05/05 02:05:52;;;;;;;9.00;3.10;;;13.60;64.50;;;16.21;46.76;101636.00;5032635;28;20285;-65
2023/05/05 02:08:21;;;;;;;5.37;3.70;;;13.60;64.50;;;16.18;46.47;101633.72;5031305;28;20191;-65
2023/05/05 02:10:49;;;;;;;5.43;2.87;;;13.60;64.60;;;16.16;46.73;101630.41;5032971;28;20203;-64
2023/05/05 02:13:19;;;;;;;5.40;3.00;;;13.60;64.50;;;16.13;46.75;101630.81;5032426;28;20679;-65
2023/05/05 02:15:48;;;;;;;7.47;3.77;;;13.50;64.30;;;16.09;46.73;101634.84;5032610;28;20698;-64
2023/05/05 02:18:17;;;;;;;6.73;3.43;;;13.50;64.20;;;16.03;46.92;101630.28;5032422;28;20614;-65
2023/05/05 02:20:45;;;;;;;10.90;3.30;;;13.50;64.30;;;16.00;46.78;101628.00;5032337;28;20195;-65
2023/05/05 02:23:14;;;;;;;4.17;2.80;;;13.50;64.40;;;15.99;46.78;101628.22;5034331;28;20213;-64
2023/05/05 02:25:45;;;;;;;8.70;3.17;;;13.40;64.40;;;15.94;46.75;101628.78;5015899;28;20207;-65
2023/05/05 02:28:18;;;;;;;4.50;2.90;;;13.40;64.40;;;15.91;47.12;101620.34;5023208;28;20182;-65
2023/05/05 02:30:56;;;;;;;6.13;3.33;;;13.30;64.60;;;15.88;46.83;101620.75;5035862;28;20178;-64
2023/05/05 02:33:27;;;;;;;4.90;3.07;;;13.30;64.50;;;15.87;46.99;101622.56;5035768;28;20574;-65
2023/05/05 02:35:58;;;;;;;7.97;3.07;;;13.30;64.70;;;15.86;47.02;101615.59;5036139;28;20214;-65
2023/05/05 02:38:29;;;;;;;6.10;2.70;;;13.30;64.90;;;15.87;47.05;101614.59;5035997;28;20560;-65
2023/05/05 02:41:00;;;;;;;5.50;3.60;;;13.30;64.80;;;15.84;46.90;101619.44;5035828;28;20198;-65
2023/05/05 02:43:32;;;;;;;4.43;2.50;;;13.30;64.60;;;15.80;46.88;101629.63;5035898;28;20762;-65
2023/05/05 02:45:59;;;;;;;3.90;2.97;;;13.20;64.30;;;15.77;46.82;101624.69;5035934;28;20190;-65
2023/05/05 02:48:28;;;;;;;8.83;3.00;;;13.20;64.30;;;15.74;46.97;101617.09;5035727;28;20234;-65
2023/05/05 02:50:56;;;;;;;6.63;3.50;;;13.20;64.60;;;15.72;47.32;101624.41;5035800;28;20261;-65
2023/05/05 02:53:26;;;;;;;4.87;3.10;;;13.20;64.50;;;15.69;46.90;101610.72;5035296;28;20194;-65
2023/05/05 02:56:04;;;;;;;5.27;2.90;;;13.10;64.70;;;15.67;47.06;101618.84;5035430;28;20226;-65
2023/05/05 02:58:41;;;;;;;5.10;3.57;;;13.10;64.80;;;15.65;46.94;101615.56;5035429;28;20608;-65
2023/05/05 03:01:26;;;;;;;6.70;3.40;;;13.10;64.80;;;15.63;47.03;101616.75;5035559;28;20187;-68
2023/05/05 03:04:05;;;;;;;7.17;3.40;;;13.10;64.80;;;15.64;47.10;101615.75;5035115;28;20240;-67
2023/05/05 03:06:41;;;;;;;9.60;3.10;;;13.00;64.90;;;15.64;46.84;101613.09;5035021;28;20194;-63
2023/05/05 03:09:14;;;;;;;4.97;3.00;;;13.00;64.70;;;15.64;46.89;101605.97;5035465;28;20252;-65
2023/05/05 03:11:48;;;;;;;7.90;3.50;;;13.00;64.80;;;15.65;47.05;101615.56;5035393;28;20634;-64
2023/05/05 03:14:19;;;;;;;4.60;3.17;;;13.00;64.70;;;15.64;47.25;101608.63;5033297;28;20723;-66
2023/05/05 03:16:48;;;;;;;6.23;3.50;;;13.00;64.60;;;15.63;46.86;101603.47;5035208;28;20182;-64
2023/05/05 03:19:19;;;;;;;6.40;2.97;;;13.00;64.70;;;15.57;46.76;101599.72;5034860;28;20694;-65
2023/05/05 03:21:47;;;;;;;5.13;2.80;;;13.00;64.50;;;15.55;46.83;101610.53;5034863;28;20201;-63
2023/05/05 03:24:17;;;;;;;7.23;3.00;;;12.90;64.40;;;15.52;46.75;101604.78;5034560;28;20206;-64
2023/05/05 03:26:46;;;;;;;5.30;3.30;;;12.90;64.50;;;15.50;46.94;101598.81;5033677;28;20252;-65
2023/05/05 03:29:14;;;;;;;5.37;3.57;;;12.90;64.70;;;15.46;46.82;101602.88;5035565;28;20194;-65
2023/05/05 03:31:41;;;;;;;6.53;3.77;;;12.90;65.50;;;15.44;47.13;101592.44;5035129;28;20520;-65
2023/05/05 03:34:08;;;;;;;7.70;3.90;;;12.80;64.60;;;15.43;47.06;101595.22;5034713;28;20234;-65
2023/05/05 03:36:35;;;;;;;12.13;3.53;;;12.80;64.80;;;15.39;47.26;101589.50;5035056;28;20218;-64
2023/05/05 03:39:02;;;;;;;6.07;3.60;;;12.80;65.00;;;15.39;47.18;101588.66;5034706;28;20210;-66
2023/05/05 03:41:31;;;;;;;8.00;3.77;;;12.80;65.00;;;15.36;47.09;101594.31;5034514;28;20190;-64
2023/05/05 03:43:58;;;;;;;6.73;4.03;;;12.80;65.10;;;15.34;47.13;101594.53;5034451;28;20268;-67
2023/05/05 03:46:25;;;;;;;6.40;3.60;;;12.70;65.00;;;15.32;47.22;101582.44;5034519;28;20666;-66
2023/05/05 03:48:52;;;;;;;6.20;3.20;;;12.70;64.90;;;15.28;47.27;101592.63;5034264;28;20187;-66
2023/05/05 03:51:19;;;;;;;4.57;3.33;;;12.70;64.90;;;15.24;47.24;101588.66;5034555;28;20202;-65
2023/05/05 03:53:46;;;;;;;10.37;3.93;;;12.70;64.90;;;15.20;47.45;101591.88;5034427;28;20190;-66
2023/05/05 03:56:13;;;;;;;7.47;3.80;;;12.60;65.90;;;15.18;47.61;101586.75;5034549;28;20195;-67
2023/05/05 03:58:41;;;;;;;5.40;3.20;;;12.60;65.20;;;15.19;47.54;101590.25;5034367;28;20280;-66
2023/05/05 04:01:08;;;;;;;5.43;3.20;;;12.60;65.20;;;15.17;47.46;101587.75;5034175;28;20240;-68
2023/05/05 04:03:35;;;;;;;5.97;3.70;;;12.60;65.20;;;15.20;47.44;101589.22;5033572;28;20194;-66
2023/05/05 04:06:02;;;;;;;6.53;3.53;;;12.60;65.40;;;15.15;47.50;101591.59;5034414;28;20202;-67
2023/05/05 04:08:29;;;;;;;8.13;3.70;;;12.60;65.30;;;15.15;47.26;101586.28;5033403;28;20195;-66
2023/05/05 04:10:56;;;;;;;6.67;4.17;;;12.60;65.30;;;15.15;47.70;101589.78;5034137;28;20245;-66
2023/05/05 04:13:23;;;;;;;8.00;3.63;;;12.60;65.50;;;15.15;47.51;101588.94;5033861;28;20216;-66
2023/05/05 04:15:51;;;;;;;8.60;3.53;;;12.50;65.30;;;15.18;47.30;101588.59;5033755;28;20249;-66
2023/05/05 04:18:18;;;;;;;5.67;3.33;;;12.60;65.40;;;15.20;47.30;101594.53;5033818;28;20671;-66
2023/05/05 04:20:46;;;;;;;5.20;3.80;;;12.50;65.20;;;15.22;47.35;101600.47;5033828;28;20218;-65
2023/05/05 04:23:12;;;;;;;5.63;3.37;;;12.50;65.20;;;15.23;47.31;101594.16;5033675;28;20551;-65
2023/05/05 04:25:40;;;;;;;8.10;3.90;;;12.60;65.20;;;15.26;47.20;101589.31;5033508;28;20264;-65
2023/05/05 04:28:06;;;;;;;6.27;3.63;;;12.60;65.20;;;15.24;47.07;101579.88;5033870;28;20260;-65
2023/05/05 04:30:33;;;;;;;6.93;4.00;;;12.60;65.00;;;15.22;47.29;101577.44;5033742;28;20190;-65
2023/05/05 04:33:02;;;;;;;7.70;4.23;;;12.60;65.00;;;15.25;47.22;101584.19;5033165;28;20198;-65
2023/05/05 04:35:29;;;;;;;7.80;3.67;;;12.60;65.00;;;15.28;46.59;101591.78;5033496;28;20222;-66
2023/05/05 04:37:56;;;;;;;8.80;3.50;;;12.60;64.80;;;15.33;46.95;101589.41;5033236;28;20666;-66
2023/05/05 04:40:25;;;;;;;6.70;3.90;;;12.60;64.90;;;15.38;46.80;101587.03;5034060;28;20222;-64
2023/05/05 04:42:52;;;;;;;8.00;3.67;;;12.70;64.90;;;15.40;46.77;101579.72;5033525;28;20205;-65
2023/05/05 04:45:19;;;;;;;7.47;3.80;;;12.70;64.60;;;15.48;46.73;101579.63;5032749;28;20218;-65
2023/05/05 04:47:46;;;;;;;6.30;3.60;;;12.80;64.70;;;15.55;46.59;101573.38;5033045;28;20207;-64
2023/05/05 04:50:15;;;;;;;6.30;3.70;;;12.80;64.60;;;15.58;46.27;101577.50;5033049;28;20725;-65
2023/05/05 04:52:42;;;;;;;4.43;3.63;;;12.80;64.20;;;15.64;45.99;101582.06;5033499;28;20270;-64
2023/05/05 04:55:10;;;;;;;9.57;3.50;;;12.90;64.10;;;15.71;46.00;101571.53;5032786;28;20659;-65
2023/05/05 04:57:37;;;;;;;5.90;3.67;;;12.90;63.90;;;15.75;45.62;101584.25;5032839;28;20203;-65
2023/05/05 05:00:06;;;;;;;5.83;3.90;;;12.90;63.70;;;15.84;45.52;101583.09;5032906;28;20425;-65
2023/05/05 05:02:36;;;;;;;8.90;3.60;;;13.00;63.60;;;15.91;45.43;101575.19;5031994;28;20649;-65
2023/05/05 05:05:04;;;;;;;9.67;3.37;;;13.00;63.40;;;16.00;45.38;101598.78;5032360;28;20207;-65
2023/05/05 05:07:32;;;;;;;9.07;4.60;;;13.10;63.30;;;16.05;45.00;101601.72;5032373;28;20190;-67
2023/05/05 05:09:59;;;;;;;9.00;3.53;;;13.10;63.00;;;16.10;44.83;101612.59;5032706;28;20199;-65
2023/05/05 05:12:26;;;;;;;8.13;3.50;;;13.20;62.90;;;16.16;44.65;101603.84;5038956;28;20540;-65
2023/05/05 05:14:53;;;;;;;5.90;3.60;;;13.20;62.60;;;16.19;44.62;101605.31;5035194;28;20266;-64
2023/05/05 05:17:21;;;;;;;7.73;4.70;;;13.30;62.50;;;16.17;44.43;101600.19;5013144;28;20311;-66
2023/05/05 05:19:48;;;;;;;3.60;3.30;;;13.30;62.30;;;16.17;44.61;101602.84;5012747;28;20211;-65
2023/05/05 05:22:15;;;;;;;8.87;3.83;;;13.40;62.20;;;16.18;44.49;101609.81;5012865;28;20253;-65
2023/05/05 05:24:43;;;;;;;6.37;4.00;;;13.40;62.00;;;16.17;44.38;101602.84;5029319;28;20218;-65
2023/05/05 05:27:10;;;;;;;6.77;3.90;;;13.40;61.90;;;16.16;44.23;101593.22;5032024;28;20599;-65
2023/05/05 05:29:37;;;;;;;4.90;3.87;;;13.40;61.70;;;16.14;44.59;101599.78;5031198;28;20269;-65
2023/05/05 05:32:04;;;;;;;5.50;3.83;;;13.40;61.60;;;16.08;44.61;101595.19;5032286;28;20191;-66
2023/05/05 05:34:31;;;;;;;7.17;4.03;;;13.40;61.50;;;16.05;44.68;101591.09;5032171;28;20674;-66
2023/05/05 05:36:58;;;;;;;7.80;4.00;;;13.40;61.50;;;16.01;44.79;101600.44;5032839;28;20205;-66
2023/05/05 05:39:25;;;;;;;4.87;4.10;;;13.40;61.40;;;15.99;44.73;101594.50;5032437;28;20281;-64
2023/05/05 05:41:54;;;;;;;6.60;4.17;;;13.40;61.50;;;15.95;44.84;101595.88;5032225;28;20190;-65
2023/05/05 05:44:21;;;;;;;7.77;4.20;;;13.40;61.60;;;15.97;44.94;101593.88;5032237;28;20211;-64
2023/05/05 05:46:48;;;;;;;5.07;3.57;;;13.30;62.30;;;16.06;44.77;101587.44;5032546;28;20693;-66
2023/05/05 05:49:15;;;;;;;6.17;3.80;;;13.40;61.70;;;16.21;44.71;101596.13;5032747;28;20593;-65
2023/05/05 05:51:45;;;;;;;6.20;3.80;;;13.40;61.90;;;16.44;44.57;101595.13;5031582;28;20199;-65
2023/05/05 05:54:14;;;;;;;6.60;4.30;;;13.50;62.10;;;16.66;44.13;101594.13;5032467;28;20211;-66
2023/05/05 05:56:41;;;;;;;7.70;3.83;;;13.60;62.00;;;16.84;43.53;101594.44;5026101;28;20207;-66
2023/05/05 05:59:09;;;;;;;8.93;4.13;;;13.80;61.60;;;17.01;43.15;101586.97;5016726;28;20655;-65
2023/05/05 06:01:36;;;;;;;6.93;3.90;;;13.90;60.90;;;17.17;43.06;101591.97;5015984;28;20199;-66
2023/05/05 06:04:03;;;;;;;8.70;3.80;;;14.10;60.70;;;17.32;42.49;101606.81;5028800;28;20214;-66
2023/05/05 06:06:30;;;;;;;4.07;3.27;;;14.20;60.20;;;17.43;42.14;101589.44;5036123;28;20209;-65
2023/05/05 06:08:57;;;;;;;9.90;4.80;;;14.30;59.50;;;17.49;41.78;101597.50;5035196;28;20195;-65
2023/05/05 06:11:24;;;;;;;8.90;4.80;;;14.50;59.30;;;17.57;41.67;101592.00;5036248;28;20193;-66
2023/05/05 06:13:51;;;;;;;6.30;3.73;;;14.60;59.10;;;17.64;41.53;101591.22;5034951;28;20222;-64
2023/05/05 06:16:20;;;;;;;7.80;3.97;;;14.60;58.60;;;17.68;41.46;101587.97;5036591;28;20210;-66
2023/05/05 06:18:47;;;;;;;4.40;3.67;;;14.70;58.40;;;17.72;41.28;101585.69;5036039;28;20201;-64
2023/05/05 06:21:14;;;;;;;6.90;4.27;;;14.80;58.20;;;17.74;41.43;101583.66;5036452;28;20218;-67
2023/05/05 06:23:41;;;;;;;4.37;3.80;;;14.80;58.10;;;17.73;41.38;101587.34;5041921;28;20198;-65
2023/05/05 06:26:08;;;;;;;6.23;3.70;;;14.90;57.90;;;17.79;41.11;101592.69;5038438;28;20198;-65
2023/05/05 06:28:34;;;;;;;7.57;4.10;;;14.90;57.90;;;17.87;41.11;101599.69;5036484;28;20516;-65
2023/05/05 06:31:01;;;;;;;7.70;4.03;;;15.00;57.80;;;17.85;40.73;101601.75;5038238;28;20275;-65
2023/05/05 06:33:30;;;;;;;7.77;4.47;;;15.00;57.50;;;17.85;40.87;101612.41;5036370;28;20190;-65
2023/05/05 06:35:57;;;;;;;7.20;4.33;;;15.00;57.40;;;17.88;40.88;101617.28;5035405;28;20194;-65
2023/05/05 06:38:24;;;;;;;4.30;3.67;;;15.00;57.40;;;17.93;41.04;101618.34;5035148;28;20646;-67
2023/05/05 06:40:51;;;;;;;6.03;4.03;;;15.10;57.40;;;17.96;40.93;101614.47;5035172;28;20213;-69
2023/05/05 06:43:17;;;;;;;5.93;3.90;;;15.10;57.40;;;17.99;40.55;101614.06;5035037;28;20282;-66
2023/05/05 06:45:44;;;;;;;6.50;3.77;;;15.10;57.20;;;17.99;40.54;101619.41;5035203;28;20218;-67
2023/05/05 06:48:11;;;;;;;8.67;3.93;;;15.10;57.00;;;18.05;40.54;101634.56;5035474;28;20191;-66
2023/05/05 06:50:40;;;;;;;7.80;3.90;;;15.20;57.10;;;18.12;40.52;101646.06;5035508;28;20591;-67
2023/05/05 06:53:07;;;;;;;7.27;3.47;;;15.20;57.00;;;18.23;40.41;101653.47;5034681;28;20201;-67
2023/05/05 06:55:34;;;;;;;7.30;4.23;;;15.20;56.90;;;18.31;40.10;101666.59;5034252;28;20259;-66
2023/05/05 06:58:01;;;;;;;8.50;4.10;;;15.30;56.80;;;18.34;39.93;101698.19;5035094;28;20202;-67
2023/05/05 07:00:28;;;;;;;8.77;4.33;;;15.30;56.60;;;18.39;39.98;101711.75;5034821;28;20269;-66
2023/05/05 07:03:01;;;;;;;5.07;3.77;;;15.40;56.60;;;18.38;39.58;101768.75;5034622;28;20198;-67
2023/05/05 07:05:32;;;;;;;4.63;3.40;;;15.40;56.00;;;18.38;39.86;101806.06;5034337;28;20546;-67
2023/05/05 07:08:00;;;;;;;5.27;3.40;;;15.40;56.10;;;18.39;39.60;101805.06;5034016;28;20187;-66
2023/05/05 07:10:27;;;;;;;6.87;4.40;;;15.40;56.10;;;18.37;39.72;101772.44;5034615;28;20186;-66
2023/05/05 07:12:54;;;;;;;5.83;3.90;;;15.40;56.20;;;18.35;39.88;101736.34;5034688;28;20530;-67
2023/05/05 07:15:21;;;;;;;5.97;4.07;;;15.40;56.20;;;18.34;40.06;101713.38;5023460;28;20230;-67
2023/05/05 07:17:55;;;;;;;7.77;3.80;;;15.40;56.20;;;18.34;40.00;101719.53;5015220;28;20641;-66
2023/05/05 07:20:23;;;;;;;5.80;3.40;;;15.50;56.40;;;18.35;40.04;101723.81;5016815;28;20217;-65
2023/05/05 07:22:50;;;;;;;7.93;3.90;;;15.50;56.20;;;18.39;39.83;101726.91;5033199;28;20219;-66
2023/05/05 07:25:19;;;;;;;8.60;3.97;;;15.50;56.10;;;18.38;40.00;101704.75;5033460;28;20218;-66
2023/05/05 07:27:46;;;;;;;6.17;3.77;;;15.50;56.00;;;18.40;39.87;101702.72;5033948;28;20253;-65
2023/05/05 07:30:13;;;;;;;6.37;3.47;;;15.50;56.00;;;18.41;39.94;101703.53;5034288;28;20182;-67
2023/05/05 07:32:44;;;;;;;7.00;4.00;;;15.50;56.10;;;18.38;40.21;101720.75;5034491;28;20536;-66
2023/05/05 07:35:12;;;;;;;6.00;3.60;;;15.50;56.40;;;18.42;40.73;101731.84;5033315;28;20226;-65
2023/05/05 07:37:39;;;;;;;8.23;4.10;;;15.50;57.30;;;18.44;40.86;101724.47;5018241;28;20194;-65
2023/05/05 07:40:07;;;;;;;8.20;3.97;;;15.50;57.60;;;18.44;41.64;101729.81;5032302;28;20210;-66
2023/05/05 07:42:36;;;;;;;7.23;4.50;;;15.50;58.70;;;18.40;42.33;101716.03;5033921;28;20198;-67
2023/05/05 07:45:05;;;;;;;9.10;4.47;;;15.50;59.80;;;18.37;42.81;101721.78;5033240;28;20241;-66
2023/05/05 07:47:32;;;;;;;8.60;3.63;;;15.50;60.40;;;18.37;43.13;101739.63;5033899;28;20198;-65
2023/05/05 07:50:00;;;;;;;7.20;4.17;;;15.50;60.70;;;18.36;43.34;101738.81;5033737;28;20194;-66
2023/05/05 07:52:27;;;;;;;6.57;4.57;;;15.50;61.10;;;18.32;44.21;101732.25;5032802;28;20646;-66
2023/05/05 07:55:14;;;;;;;9.30;5.17;;;15.40;62.50;;;18.27;44.89;101734.69;5033569;28;20230;-66
2023/05/05 07:57:42;;;;;;;9.73;4.30;;;15.40;63.00;;;18.20;45.74;101723.19;5033830;28;20194;-65
2023/05/05 08:00:12;;;;;;;7.73;4.47;;;15.40;64.70;;;18.15;45.32;101710.44;5031400;28;20233;-66
2023/05/05 08:02:39;;;;;;;6.97;5.20;;;15.40;64.10;;;18.13;45.66;101688.50;5034057;28;20190;-65
2023/05/05 08:05:07;;;;;;;6.17;4.23;;;15.40;64.80;;;18.12;46.24;101668.19;5031579;28;20215;-65
2023/05/05 08:07:39;;;;;;;5.47;4.35;;;15.30;65.70;;;18.15;46.51;101651.81;5019551;28;20457;-65
2023/05/05 08:10:09;;;;;;;8.18;4.95;;;15.30;66.20;;;18.40;46.48;101649.38;5029934;28;20728;-64
2023/05/05 08:12:36;;;;;;;6.23;4.87;;;15.30;67.40;;;18.31;47.22;101639.94;5033339;28;20194;-67
2023/05/05 08:15:06;;;;;;;7.97;4.75;;;15.30;68.00;;;18.60;46.88;101628.94;5030100;28;20443;-65
2023/05/05 08:17:48;;;;;;;7.63;5.03;;;15.30;68.70;;;18.60;46.97;101626.28;5032165;28;20211;-66
2023/05/05 08:20:17;;;;;;;7.10;5.40;;;15.40;68.80;;;18.76;46.71;101617.84;5021738;28;20288;-66
2023/05/05 08:22:45;;;;;;;5.67;4.07;;;15.50;68.40;;;19.28;46.45;101610.78;5032709;28;20194;-66
2023/05/05 08:25:13;;;;;;;6.33;4.70;;;15.70;69.20;;;20.38;45.67;101613.13;5032418;28;20264;-66
2023/05/05 08:27:42;;;;;;;6.70;4.37;;;16.00;70.10;;;21.30;43.13;101603.22;5029272;28;20676;-68
2023/05/05 08:30:11;;;;;;;6.43;4.87;;;16.50;68.80;;;21.67;42.02;101605.88;5033034;28;20269;-65
2023/05/05 08:32:38;;;;;;;7.30;5.70;;;17.10;66.20;;;22.58;40.26;101622.50;5031693;28;20429;-67
2023/05/05 08:35:06;;;;;;;6.53;5.43;;;17.60;65.10;;;23.00;39.66;101628.63;5032064;28;20608;-68
2023/05/05 08:37:34;;;;;;;12.57;8.00;;;18.10;63.90;;;23.09;38.47;101629.88;5032510;28;20199;-66
2023/05/05 08:40:01;;;;;;;25.03;22.33;;;18.50;60.90;;;23.04;38.43;101619.03;5032236;28;20205;-66
2023/05/05 08:42:29;;;;;;;5.90;5.07;;;18.80;59.60;;;23.09;38.13;101627.19;5024917;28;20205;-66
2023/05/05 08:45:06;;;;;;;6.10;4.07;;;18.90;59.10;;;23.15;38.25;101624.41;5032628;28;20273;-66
2023/05/05 08:47:36;;;;;;;8.77;4.80;;;19.10;58.70;;;23.01;37.92;101627.56;5031819;28;20252;-66
2023/05/05 08:50:08;;;;;;;8.23;3.63;;;19.30;57.80;;;22.72;38.40;101627.47;5033321;28;20565;-65
2023/05/05 08:52:40;;;;;;;7.43;5.85;;;19.30;57.30;;;22.67;37.57;101627.34;5032519;28;20505;-66
2023/05/05 08:55:16;;;;;;;6.93;5.10;;;19.10;56.50;;;22.21;38.90;101636.06;5032125;28;20229;-66
2023/05/05 08:57:50;;;;;;;5.23;4.37;;;19.00;57.70;;;21.86;38.88;101647.72;5032293;28;20202;-66
2023/05/05 09:00:20;;;;;;;5.10;3.77;;;18.80;57.20;;;21.62;39.28;101648.59;5016891;28;20289;-66
2023/05/05 09:02:49;;;;;;;11.27;5.67;;;18.70;57.30;;;21.37;39.89;101673.59;5031982;28;20205;-66
2023/05/05 09:05:17;;;;;;;16.97;12.77;;;18.50;57.20;;;21.18;39.71;101679.97;5032054;28;20288;-67
2023/05/05 09:07:46;;;;;;;13.90;8.63;;;18.30;57.40;;;20.98;39.86;101673.97;5030183;28;20210;-68
2023/05/05 09:10:15;;;;;;;6.37;5.37;;;18.10;57.70;;;20.79;40.52;101672.28;5032599;28;20178;-66
2023/05/05 09:12:42;;;;;;;7.50;5.07;;;18.00;58.10;;;20.60;41.22;101671.41;5032190;28;20194;-66
2023/05/05 09:15:12;;;;;;;6.93;4.40;;;17.80;58.40;;;20.43;40.75;101664.94;5031808;28;20218;-67
2023/05/05 09:17:42;;;;;;;9.00;5.43;;;17.60;58.50;;;20.31;41.79;101677.38;5032507;28;20264;-67
2023/05/05 09:20:13;;;;;;;6.37;4.70;;;17.50;59.90;;;20.25;42.37;101673.69;5032615;28;20631;-66
2023/05/05 09:22:43;;;;;;;6.45;4.60;;;17.40;60.60;;;20.20;42.82;101670.84;5032499;28;20407;-67
2023/05/05 09:25:12;;;;;;;7.93;5.70;;;17.30;61.80;;;20.11;44.29;101666.75;5031979;28;20678;-65
2023/05/05 09:27:42;;;;;;;6.90;6.20;;;17.20;63.60;;;19.99;45.34;101665.00;5032192;28;20240;-67
2023/05/05 09:30:13;;;;;;;6.33;5.73;;;17.20;65.20;;;19.92;45.48;101667.66;5026594;28;20190;-66
2023/05/05 09:32:49;;;;;;;6.70;4.93;;;17.10;65.30;;;19.91;45.63;101667.91;5034015;28;20584;-67
2023/05/05 09:35:19;;;;;;;7.23;5.87;;;17.00;65.80;;;19.98;45.25;101668.69;5035077;28;20280;-67
2023/05/05 09:37:46;;;;;;;11.40;10.20;;;17.00;66.10;;;20.08;45.38;101661.84;5036353;28;20194;-67
2023/05/05 09:40:16;;;;;;;11.53;7.47;;;17.00;66.70;;;20.24;45.51;101655.19;5030483;28;20666;-66
2023/05/05 09:42:44;;;;;;;10.83;5.90;;;17.00;67.20;;;20.35;45.41;101656.38;5036011;28;20270;-66
2023/05/05 09:45:26;;;;;;;6.40;5.20;;;17.00;67.10;;;20.53;45.52;101659.13;5036145;28;20246;-66
2023/05/05 09:47:53;;;;;;;6.87;5.00;;;17.10;67.70;;;20.68;44.80;101670.34;5035826;28;20218;-68
2023/05/05 09:50:29;;;;;;;7.87;5.23;;;17.20;67.50;;;20.79;44.34;101669.63;5036060;28;20190;-67
2023/05/05 09:53:00;;;;;;;8.03;4.93;;;17.30;67.00;;;20.86;44.66;101659.69;5035669;28;20643;-68
2023/05/05 09:55:27;;;;;;;11.33;6.70;;;17.50;66.80;;;20.92;44.93;101654.25;5035725;28;20211;-66
2023/05/05 09:57:54;;;;;;;10.20;6.33;;;17.60;67.10;;;21.02;44.84;101643.03;5036228;28;20248;-66
2023/05/05 10:00:36;;;;;;;8.20;6.17;;;17.70;67.20;;;21.19;44.53;101646.81;5036071;28;20202;-66
2023/05/05 10:03:03;;;;;;;6.50;4.97;;;17.80;67.40;;;21.46;44.61;101640.16;5036141;28;20179;-67
2023/05/05 10:05:31;;;;;;;10.30;6.37;;;17.90;67.00;;;22.16;43.80;101635.94;5035408;28;20218;-67
2023/05/05 10:08:12;;;;;;;7.73;5.50;;;18.20;67.90;;;23.33;42.19;101629.63;5034769;28;20199;-68
2023/05/05 10:10:52;;;;;;;8.23;5.63;;;18.60;67.70;;;24.59;40.45;101628.53;5034720;28;20186;-68
2023/05/05 10:13:22;;;;;;;5.17;4.67;;;19.20;67.40;;;24.99;36.98;101631.03;5034263;28;20643;-67
2023/05/05 10:15:51;;;;;;;8.30;5.33;;;19.80;60.30;;;25.27;36.16;101628.22;5035523;28;20688;-66
2023/05/05 10:18:21;;;;;;;13.30;4.77;;;20.30;58.70;;;25.00;33.39;101632.69;5035143;28;20197;-66
2023/05/05 10:20:56;;;;;;;6.93;4.50;;;20.60;53.50;;;24.70;32.53;101616.84;5035031;28;20290;-66
2023/05/05 10:23:30;;;;;;;5.73;4.57;;;20.70;50.30;;;24.51;32.66;101615.50;5033958;28;20182;-68